Time,TemperatureF,DewpointF,PressureIn,WindDirection,WindDirectionDegrees,WindSpeedMPH,WindSpeedGustMPH,Humidity,HourlyPrecipIn,Conditions,Clouds,dailyrainin,SolarRadiationWatts/m^2,SoftwareType,DateUTC
2013-09-20 00:01:00,70.4,67.6,29.99,SSW,213,1.0,4.0,91,0.00,,,0.00,0,Wunderground v.1.15,2013-09-20 04:01:00,
2013-09-20 00:06:00,70.3,67.5,29.99,SSW,213,0.0,4.0,91,0.00,,,0.00,0,Wunderground v.1.15,2013-09-20 04:06:00,
2013-09-20 00:11:00,70.3,67.5,29.99,SSW,212,1.0,5.0,91,0.00,,,0.00,0,Wunderground v.1.15,2013-09-20 04:11:00,
2013-09-20 00:16:00,70.2,67.4,29.99,SSW,211,1.0,5.0,91,0.00,,,0.00,0,Wunderground v.1.15,2013-09-20 04:16:00,
2013-09-20 00:22:00,70.2,67.4,29.99,SSW,211,1.0,2.0,91,0.00,,,0.00,0,Wunderground v.1.15,2013-09-20 04:22:00,
2013-09-20 00:27:00,70.0,66.9,29.99,SSW,211,1.0,2.0,90,0.00,,,0.00,0,Wunderground v.1.15,2013-09-20 04:27:00,
2013-09-20 00:32:00,69.8,67.1,29.99,SSW,208,0.0,3.0,91,0.00,,,0.00,0,Wunderground v.1.15,2013-09-20 04:32:00,
2013-09-20 00:37:00,69.8,67.1,29.99,SSW,208,0.0,3.0,91,0.00,,,0.00,0,Wunderground v.1.15,2013-09-20 04:37:00,
2013-09-20 00:42:00,69.7,67.0,29.98,SSW,199,1.0,3.0,91,0.00,,,0.00,0,Wunderground v.1.15,2013-09-20 04:42:00,
2013-09-20 00:47:00,69.7,67.0,29.98,SSW,207,3.0,3.0,91,0.00,,,0.00,0,Wunderground v.1.15,2013-09-20 04:47:00,
2013-09-20 00:52:00,69.6,66.9,29.98,SSW,204,1.0,3.0,91,0.00,,,0.00,0,Wunderground v.1.15,2013-09-20 04:52:00,
2013-09-20 00:57:00,69.5,66.8,29.98,SSW,204,1.0,3.0,91,0.00,,,0.00,0,Wunderground v.1.15,2013-09-20 04:57:00,
2013-09-20 01:02:00,69.4,66.7,29.98,SSW,204,1.0,3.0,91,0.00,,,0.00,0,Wunderground v.1.15,2013-09-20 05:02:00,
2013-09-20 01:07:00,69.4,67.0,29.98,SSW,207,2.0,3.0,92,0.00,,,0.00,0,Wunderground v.1.15,2013-09-20 05:07:00,
2013-09-20 01:12:00,69.4,67.0,29.99,SSW,211,0.0,3.0,92,0.00,,,0.00,0,Wunderground v.1.15,2013-09-20 05:12:00,
2013-09-20 01:17:00,69.4,66.7,29.98,SSW,211,0.0,3.0,91,0.00,,,0.00,0,Wunderground v.1.15,2013-09-20 05:17:00,
2013-09-20 01:22:00,69.4,66.7,29.98,SSW,211,1.0,3.0,91,0.00,,,0.00,0,Wunderground v.1.15,2013-09-20 05:22:00,
2013-09-20 01:27:00,69.5,66.8,29.98,SSW,211,1.0,3.0,91,0.00,,,0.00,0,Wunderground v.1.15,2013-09-20 05:27:00,
2013-09-20 01:32:00,69.6,66.9,29.98,SSW,211,1.0,3.0,91,0.00,,,0.00,0,Wunderground v.1.15,2013-09-20 05:32:00,
2013-09-20 01:37:00,69.7,66.6,29.98,SSW,212,1.0,3.0,90,0.00,,,0.00,0,Wunderground v.1.15,2013-09-20 05:37:00,
2013-09-20 01:42:00,69.7,66.6,29.98,SSW,212,0.0,2.0,90,0.00,,,0.00,0,Wunderground v.1.15,2013-09-20 05:42:00,
2013-09-20 01:47:00,69.6,66.5,29.98,SSW,212,1.0,2.0,90,0.00,,,0.00,0,Wunderground v.1.15,2013-09-20 05:47:00,
2013-09-20 01:52:00,69.3,66.2,29.98,SSW,212,0.0,2.0,90,0.00,,,0.00,0,Wunderground v.1.15,2013-09-20 05:52:00,
2013-09-20 01:57:00,69.0,65.9,29.99,SSW,212,0.0,2.0,90,0.00,,,0.00,0,Wunderground v.1.15,2013-09-20 05:57:00,
2013-09-20 02:02:00,68.8,66.1,29.99,SSW,212,0.0,1.0,91,0.00,,,0.00,0,Wunderground v.1.15,2013-09-20 06:02:00,
2013-09-20 02:07:00,68.6,65.9,29.99,SSW,212,0.0,1.0,91,0.00,,,0.00,0,Wunderground v.1.15,2013-09-20 06:07:00,
2013-09-20 02:12:00,68.3,65.6,29.99,SSW,212,3.0,3.0,91,0.00,,,0.00,0,Wunderground v.1.15,2013-09-20 06:12:00,
2013-09-20 02:17:00,68.4,66.0,29.99,SSW,212,1.0,3.0,92,0.00,,,0.00,0,Wunderground v.1.15,2013-09-20 06:17:00,
2013-09-20 02:22:00,68.5,66.1,29.99,SSW,213,1.0,4.0,92,0.00,,,0.00,0,Wunderground v.1.15,2013-09-20 06:22:00,
2013-09-20 02:27:00,68.5,66.1,29.99,SW,215,0.0,4.0,92,0.00,,,0.00,0,Wunderground v.1.15,2013-09-20 06:27:00,
2013-09-20 02:32:00,68.5,66.1,29.98,SW,215,0.0,1.0,92,0.00,,,0.00,0,Wunderground v.1.15,2013-09-20 06:32:00,
2013-09-20 02:37:00,68.4,65.7,29.98,SW,215,0.0,1.0,91,0.00,,,0.00,0,Wunderground v.1.15,2013-09-20 06:37:00,
2013-09-20 02:42:00,68.4,65.7,29.99,SW,215,0.0,1.0,91,0.00,,,0.00,0,Wunderground v.1.15,2013-09-20 06:42:00,
2013-09-20 02:47:00,68.1,65.4,29.98,SW,215,0.0,1.0,91,0.00,,,0.00,0,Wunderground v.1.15,2013-09-20 06:47:00,
2013-09-20 02:52:00,67.9,65.5,29.98,SSW,212,1.0,3.0,92,0.00,,,0.00,0,Wunderground v.1.15,2013-09-20 06:52:00,
2013-09-20 02:57:00,67.8,65.4,29.98,SSW,212,0.0,3.0,92,0.00,,,0.00,0,Wunderground v.1.15,2013-09-20 06:57:00,
2013-09-20 03:02:00,67.7,65.3,29.98,SSW,212,0.0,2.0,92,0.00,,,0.00,0,Wunderground v.1.15,2013-09-20 07:02:00,
2013-09-20 03:07:00,67.7,65.3,29.98,SSW,212,1.0,2.0,92,0.00,,,0.00,0,Wunderground v.1.15,2013-09-20 07:07:00,
2013-09-20 03:12:00,67.7,65.3,29.98,SSW,212,0.0,2.0,92,0.00,,,0.00,0,Wunderground v.1.15,2013-09-20 07:12:00,
2013-09-20 03:17:00,67.7,65.3,29.98,SSW,212,2.0,3.0,92,0.00,,,0.00,0,Wunderground v.1.15,2013-09-20 07:17:00,
2013-09-20 03:22:00,67.8,65.4,29.98,SW,216,3.0,4.0,92,0.00,,,0.00,0,Wunderground v.1.15,2013-09-20 07:22:00,
2013-09-20 03:27:00,67.9,65.5,29.98,SW,219,2.0,4.0,92,0.00,,,0.00,0,Wunderground v.1.15,2013-09-20 07:27:00,
2013-09-20 03:32:00,67.9,65.5,29.97,SW,219,1.0,3.0,92,0.00,,,0.00,0,Wunderground v.1.15,2013-09-20 07:32:00,
2013-09-20 03:37:00,67.9,65.5,29.97,SW,219,2.0,3.0,92,0.00,,,0.00,0,Wunderground v.1.15,2013-09-20 07:37:00,
2013-09-20 03:42:00,67.8,65.4,29.97,SW,219,1.0,3.0,92,0.00,,,0.00,0,Wunderground v.1.15,2013-09-20 07:42:00,
2013-09-20 03:47:00,67.8,65.4,29.97,SW,219,0.0,3.0,92,0.00,,,0.00,0,Wunderground v.1.15,2013-09-20 07:47:00,
2013-09-20 03:52:00,67.7,65.3,29.97,SW,219,1.0,3.0,92,0.00,,,0.00,0,Wunderground v.1.15,2013-09-20 07:52:00,
2013-09-20 03:57:00,67.6,65.2,29.97,SSW,198,0.0,3.0,92,0.00,,,0.00,0,Wunderground v.1.15,2013-09-20 07:57:00,
2013-09-20 04:02:00,67.5,65.1,29.97,SSW,210,0.0,4.0,92,0.00,,,0.00,0,Wunderground v.1.15,2013-09-20 08:02:00,
2013-09-20 04:07:00,67.5,65.1,29.97,SSW,210,1.0,4.0,92,0.00,,,0.00,0,Wunderground v.1.15,2013-09-20 08:07:00,
2013-09-20 04:12:00,67.4,65.0,29.97,SSW,211,2.0,3.0,92,0.00,,,0.00,0,Wunderground v.1.15,2013-09-20 08:12:00,
2013-09-20 04:17:00,67.4,65.0,29.97,SW,215,3.0,4.0,92,0.00,,,0.00,0,Wunderground v.1.15,2013-09-20 08:17:00,
2013-09-20 04:22:00,67.5,65.1,29.97,WSW,246,4.0,5.0,92,0.00,,,0.00,0,Wunderground v.1.15,2013-09-20 08:22:00,
2013-09-20 04:27:00,67.7,65.3,29.97,SW,229,5.0,6.0,92,0.00,,,0.00,0,Wunderground v.1.15,2013-09-20 08:27:00,
2013-09-20 04:32:00,67.9,65.5,29.97,SW,229,2.0,5.0,92,0.00,,,0.00,0,Wunderground v.1.15,2013-09-20 08:32:00,
2013-09-20 04:37:00,68.0,65.3,29.96,SSW,205,1.0,5.0,91,0.00,,,0.00,0,Wunderground v.1.15,2013-09-20 08:37:00,
2013-09-20 04:42:00,68.1,65.4,29.96,SW,231,3.0,6.0,91,0.00,,,0.00,0,Wunderground v.1.15,2013-09-20 08:42:00,
2013-09-20 04:47:00,68.1,65.4,29.96,SW,234,2.0,6.0,91,0.00,,,0.00,0,Wunderground v.1.15,2013-09-20 08:47:00,
2013-09-20 04:52:00,68.1,65.1,29.96,SW,219,3.0,6.0,90,0.00,,,0.00,0,Wunderground v.1.15,2013-09-20 08:52:00,
2013-09-20 04:57:00,68.1,65.1,29.96,SW,220,1.0,6.0,90,0.00,,,0.00,0,Wunderground v.1.15,2013-09-20 08:57:00,
2013-09-20 05:02:00,68.0,65.0,29.96,SW,217,2.0,4.0,90,0.00,,,0.00,0,Wunderground v.1.15,2013-09-20 09:02:00,
2013-09-20 05:07:00,68.0,65.0,29.96,SW,217,0.0,4.0,90,0.00,,,0.00,0,Wunderground v.1.15,2013-09-20 09:07:00,
2013-09-20 05:12:00,67.9,65.2,29.96,SW,225,1.0,5.0,91,0.00,,,0.00,0,Wunderground v.1.15,2013-09-20 09:12:00,
2013-09-20 05:17:00,67.9,65.2,29.96,SW,232,1.0,5.0,91,0.00,,,0.00,0,Wunderground v.1.15,2013-09-20 09:17:00,
2013-09-20 05:22:00,67.7,65.0,29.96,SW,218,1.0,3.0,91,0.00,,,0.00,0,Wunderground v.1.15,2013-09-20 09:22:00,
2013-09-20 05:27:00,67.7,65.0,29.96,SW,228,1.0,4.0,91,0.00,,,0.00,0,Wunderground v.1.15,2013-09-20 09:27:00,
2013-09-20 05:33:00,67.6,64.9,29.96,SW,228,0.0,2.0,91,0.00,,,0.00,0,Wunderground v.1.15,2013-09-20 09:33:00,
2013-09-20 05:38:00,67.5,64.8,29.96,SW,228,1.0,1.0,91,0.00,,,0.00,0,Wunderground v.1.15,2013-09-20 09:38:00,
2013-09-20 05:43:00,67.5,64.8,29.96,SW,228,1.0,3.0,91,0.00,,,0.00,0,Wunderground v.1.15,2013-09-20 09:43:00,
2013-09-20 05:48:00,67.4,64.7,29.96,SW,235,1.0,1.0,91,0.00,,,0.00,0,Wunderground v.1.15,2013-09-20 09:48:00,
2013-09-20 05:53:00,67.4,64.7,29.96,SW,235,0.0,2.0,91,0.00,,,0.00,0,Wunderground v.1.15,2013-09-20 09:53:00,
2013-09-20 05:58:00,67.4,64.7,29.96,SW,231,4.0,5.0,91,0.00,,,0.00,0,Wunderground v.1.15,2013-09-20 09:58:00,
2013-09-20 06:03:00,67.5,64.8,29.96,SW,232,4.0,6.0,91,0.00,,,0.00,0,Wunderground v.1.15,2013-09-20 10:03:00,
2013-09-20 06:08:00,67.7,65.0,29.96,WSW,251,3.0,4.0,91,0.00,,,0.00,0,Wunderground v.1.15,2013-09-20 10:08:00,
2013-09-20 06:13:00,67.9,65.2,29.96,SW,233,4.0,7.0,91,0.00,,,0.00,0,Wunderground v.1.15,2013-09-20 10:13:00,
2013-09-20 06:18:00,68.1,65.1,29.96,WSW,239,4.0,4.0,90,0.00,,,0.00,0,Wunderground v.1.15,2013-09-20 10:18:00,
2013-09-20 06:23:00,68.2,65.2,29.96,SW,236,2.0,6.0,90,0.00,,,0.00,0,Wunderground v.1.15,2013-09-20 10:23:00,
2013-09-20 06:28:00,68.2,65.2,29.96,SW,226,3.0,4.0,90,0.00,,,0.00,0,Wunderground v.1.15,2013-09-20 10:28:00,
2013-09-20 06:33:00,68.3,65.3,29.96,SW,234,4.0,6.0,90,0.00,,,0.00,0,Wunderground v.1.15,2013-09-20 10:33:00,
2013-09-20 06:38:00,68.2,65.2,29.96,SW,226,3.0,3.0,90,0.00,,,0.00,0,Wunderground v.1.15,2013-09-20 10:38:00,
2013-09-20 06:43:00,68.2,64.8,29.96,SW,236,2.0,4.0,89,0.00,,,0.00,0,Wunderground v.1.15,2013-09-20 10:43:00,
2013-09-20 06:48:00,68.1,65.1,29.96,SW,232,5.0,5.0,90,0.00,,,0.00,0,Wunderground v.1.15,2013-09-20 10:48:00,
2013-09-20 06:53:00,68.1,65.1,29.96,SW,229,2.0,5.0,90,0.00,,,0.00,0,Wunderground v.1.15,2013-09-20 10:53:00,
2013-09-20 06:58:00,68.0,65.0,29.96,SW,228,2.0,2.0,90,0.00,,,0.00,0,Wunderground v.1.15,2013-09-20 10:58:00,
2013-09-20 07:03:00,67.9,64.9,29.96,SW,225,2.0,4.0,90,0.00,,,0.00,0,Wunderground v.1.15,2013-09-20 11:03:00,
2013-09-20 07:08:00,67.7,64.7,29.96,SW,221,3.0,3.0,90,0.00,,,0.00,0,Wunderground v.1.15,2013-09-20 11:08:00,
2013-09-20 07:13:00,67.6,64.6,29.96,SSW,212,2.0,4.0,90,0.00,,,0.00,0,Wunderground v.1.15,2013-09-20 11:13:00,
2013-09-20 07:18:00,67.5,64.5,29.96,SW,224,3.0,3.0,90,0.00,,,0.00,0,Wunderground v.1.15,2013-09-20 11:18:00,
2013-09-20 07:23:00,67.5,64.8,29.96,SW,224,1.0,3.0,91,0.00,,,0.00,5,Wunderground v.1.15,2013-09-20 11:23:00,
2013-09-20 07:28:00,67.6,64.9,29.96,SW,224,2.0,2.0,91,0.00,,,0.00,7,Wunderground v.1.15,2013-09-20 11:28:00,
2013-09-20 07:33:00,67.7,65.0,29.96,SW,221,1.0,3.0,91,0.00,,,0.00,11,Wunderground v.1.15,2013-09-20 11:33:00,
2013-09-20 07:38:00,67.8,65.1,29.96,SW,219,0.0,1.0,91,0.00,,,0.00,18,Wunderground v.1.15,2013-09-20 11:38:00,
2013-09-20 07:43:00,67.7,65.0,29.96,SW,222,1.0,4.0,91,0.00,,,0.00,25,Wunderground v.1.15,2013-09-20 11:43:00,
2013-09-20 07:48:00,67.7,64.7,29.96,SSW,202,1.0,4.0,90,0.00,,,0.00,33,Wunderground v.1.15,2013-09-20 11:48:00,
2013-09-20 07:53:00,67.9,64.9,29.96,SW,219,1.0,5.0,90,0.00,,,0.00,40,Wunderground v.1.15,2013-09-20 11:53:00,
2013-09-20 07:58:00,68.0,65.0,29.96,SW,218,3.0,4.0,90,0.00,,,0.00,49,Wunderground v.1.15,2013-09-20 11:58:00,
2013-09-20 08:03:00,68.0,65.0,29.96,SW,224,4.0,4.0,90,0.00,,,0.00,49,Wunderground v.1.15,2013-09-20 12:03:00,
2013-09-20 08:08:00,68.0,65.0,29.96,SSW,206,3.0,3.0,90,0.00,,,0.00,54,Wunderground v.1.15,2013-09-20 12:08:00,
2013-09-20 08:13:00,68.1,65.1,29.96,WSW,241,0.0,4.0,90,0.00,,,0.00,86,Wunderground v.1.15,2013-09-20 12:13:00,
2013-09-20 08:18:00,68.4,65.4,29.96,SW,226,4.0,4.0,90,0.00,,,0.00,100,Wunderground v.1.15,2013-09-20 12:18:00,
2013-09-20 08:23:00,68.6,65.5,29.96,South,189,3.0,5.0,90,0.00,,,0.00,121,Wunderground v.1.15,2013-09-20 12:23:00,
2013-09-20 08:28:00,68.9,65.5,29.96,SSW,206,1.0,4.0,89,0.00,,,0.00,118,Wunderground v.1.15,2013-09-20 12:28:00,
2013-09-20 08:33:00,69.2,65.8,29.96,SSW,212,3.0,6.0,89,0.00,,,0.00,149,Wunderground v.1.15,2013-09-20 12:33:00,
2013-09-20 08:38:00,69.3,65.6,29.96,SSW,213,2.0,6.0,88,0.00,,,0.00,155,Wunderground v.1.15,2013-09-20 12:38:00,
2013-09-20 08:43:00,69.5,66.1,29.96,SW,232,2.0,6.0,89,0.00,,,0.00,151,Wunderground v.1.15,2013-09-20 12:43:00,
2013-09-20 08:48:00,69.8,66.1,29.96,SW,230,4.0,6.0,88,0.00,,,0.00,176,Wunderground v.1.15,2013-09-20 12:48:00,
2013-09-20 08:53:00,70.2,66.5,29.96,SW,233,2.0,8.0,88,0.00,,,0.00,195,Wunderground v.1.15,2013-09-20 12:53:00,
2013-09-20 08:59:00,70.6,66.5,29.96,SW,215,5.0,8.0,87,0.00,,,0.00,192,Wunderground v.1.15,2013-09-20 12:59:00,
2013-09-20 09:04:00,70.9,66.8,29.97,West,260,4.0,8.0,87,0.00,,,0.00,214,Wunderground v.1.15,2013-09-20 13:04:00,
2013-09-20 09:09:00,71.5,67.1,29.97,SW,233,4.0,6.0,86,0.00,,,0.00,216,Wunderground v.1.15,2013-09-20 13:09:00,
2013-09-20 09:14:00,72.0,66.9,29.97,SSW,211,6.0,9.0,84,0.00,,,0.00,214,Wunderground v.1.15,2013-09-20 13:14:00,
2013-09-20 09:19:00,72.3,66.8,29.97,West,263,4.0,8.0,83,0.00,,,0.00,253,Wunderground v.1.15,2013-09-20 13:19:00,
2013-09-20 09:24:00,72.6,67.1,29.97,WSW,244,4.0,12.0,83,0.00,,,0.00,269,Wunderground v.1.15,2013-09-20 13:24:00,
2013-09-20 09:29:00,72.8,66.6,29.97,SW,232,6.0,11.0,81,0.00,,,0.00,292,Wunderground v.1.15,2013-09-20 13:29:00,
2013-09-20 09:34:00,72.9,67.1,29.97,SW,225,7.0,11.0,82,0.00,,,0.00,304,Wunderground v.1.15,2013-09-20 13:34:00,
2013-09-20 09:39:00,73.1,66.9,29.97,SW,230,6.0,11.0,81,0.00,,,0.00,308,Wunderground v.1.15,2013-09-20 13:39:00,
2013-09-20 09:44:00,73.6,67.0,29.97,WSW,257,4.0,11.0,80,0.00,,,0.00,329,Wunderground v.1.15,2013-09-20 13:44:00,
2013-09-20 09:49:00,73.9,67.0,29.97,SW,234,9.0,10.0,79,0.00,,,0.00,353,Wunderground v.1.15,2013-09-20 13:49:00,
2013-09-20 09:54:00,74.1,66.8,29.97,WSW,248,10.0,12.0,78,0.00,,,0.00,388,Wunderground v.1.15,2013-09-20 13:54:00,
2013-09-20 09:59:00,74.5,67.2,29.97,WSW,256,5.0,8.0,78,0.00,,,0.00,417,Wunderground v.1.15,2013-09-20 13:59:00,
2013-09-20 10:04:00,75.2,67.5,29.97,SW,229,7.0,9.0,77,0.00,,,0.00,450,Wunderground v.1.15,2013-09-20 14:04:00,
2013-09-20 10:09:00,75.8,67.3,29.96,SW,227,5.0,11.0,75,0.00,,,0.00,434,Wunderground v.1.15,2013-09-20 14:09:00,
2013-09-20 10:14:00,76.2,67.3,29.96,West,261,5.0,12.0,74,0.00,,,0.00,404,Wunderground v.1.15,2013-09-20 14:14:00,
2013-09-20 10:19:00,76.4,67.1,29.97,West,260,4.0,9.0,73,0.00,,,0.00,504,Wunderground v.1.15,2013-09-20 14:19:00,
2013-09-20 10:24:00,77.3,68.0,29.96,WSW,243,7.0,9.0,73,0.00,,,0.00,420,Wunderground v.1.15,2013-09-20 14:24:00,
2013-09-20 10:29:00,77.6,67.4,29.96,West,262,6.0,10.0,71,0.00,,,0.00,536,Wunderground v.1.15,2013-09-20 14:29:00,
2013-09-20 10:34:00,78.0,67.4,29.96,WSW,238,7.0,12.0,70,0.00,,,0.00,427,Wunderground v.1.15,2013-09-20 14:34:00,
2013-09-20 10:39:00,78.0,67.4,29.96,West,273,7.0,11.0,70,0.00,,,0.00,510,Wunderground v.1.15,2013-09-20 14:39:00,
2013-09-20 10:44:00,78.5,67.9,29.96,SW,223,7.0,11.0,70,0.00,,,0.00,359,Wunderground v.1.15,2013-09-20 14:44:00,
2013-09-20 10:49:00,78.4,67.8,29.96,WSW,241,7.0,9.0,70,0.00,,,0.00,413,Wunderground v.1.15,2013-09-20 14:49:00,
2013-09-20 10:54:00,78.4,67.8,29.96,West,261,8.0,12.0,70,0.00,,,0.00,396,Wunderground v.1.15,2013-09-20 14:54:00,
2013-09-20 10:59:00,78.5,67.5,29.96,West,280,8.0,10.0,69,0.00,,,0.00,524,Wunderground v.1.15,2013-09-20 14:59:00,
2013-09-20 11:04:00,79.0,67.5,29.96,WSW,257,7.0,11.0,68,0.00,,,0.00,517,Wunderground v.1.15,2013-09-20 15:04:00,
2013-09-20 11:09:00,79.4,67.5,29.95,SW,224,7.0,11.0,67,0.00,,,0.00,550,Wunderground v.1.15,2013-09-20 15:09:00,
2013-09-20 11:14:00,79.7,68.2,29.95,WSW,249,8.0,13.0,68,0.00,,,0.00,622,Wunderground v.1.15,2013-09-20 15:14:00,
2013-09-20 11:19:00,80.3,67.9,29.95,WSW,258,3.0,8.0,66,0.00,,,0.00,624,Wunderground v.1.15,2013-09-20 15:19:00,
2013-09-20 11:24:00,80.9,67.6,29.95,WSW,240,7.0,14.0,64,0.00,,,0.00,640,Wunderground v.1.15,2013-09-20 15:24:00,
2013-09-20 11:29:00,81.4,68.5,29.94,SW,223,10.0,10.0,65,0.00,,,0.00,650,Wunderground v.1.15,2013-09-20 15:29:00,
2013-09-20 11:34:00,81.6,67.8,29.94,WSW,244,10.0,14.0,63,0.00,,,0.00,659,Wunderground v.1.15,2013-09-20 15:34:00,
2013-09-20 11:39:00,81.4,67.6,29.94,SW,236,6.0,10.0,63,0.00,,,0.00,671,Wunderground v.1.15,2013-09-20 15:39:00,
2013-09-20 11:44:00,81.7,67.9,29.94,WSW,240,5.0,12.0,63,0.00,,,0.00,680,Wunderground v.1.15,2013-09-20 15:44:00,
2013-09-20 11:49:00,81.9,67.6,29.94,West,271,9.0,11.0,62,0.00,,,0.00,698,Wunderground v.1.15,2013-09-20 15:49:00,
2013-09-20 11:54:00,82.3,68.0,29.94,West,269,12.0,13.0,62,0.00,,,0.00,714,Wunderground v.1.15,2013-09-20 15:54:00,
2013-09-20 11:59:00,82.7,68.4,29.93,WSW,244,9.0,11.0,62,0.00,,,0.00,707,Wunderground v.1.15,2013-09-20 15:59:00,
2013-09-20 12:05:00,83.1,67.8,29.93,WSW,245,6.0,14.0,60,0.00,,,0.00,729,Wunderground v.1.15,2013-09-20 16:05:00,
2013-09-20 12:10:00,83.5,68.2,29.93,West,261,5.0,9.0,60,0.00,,,0.00,696,Wunderground v.1.15,2013-09-20 16:10:00,
2013-09-20 12:15:00,83.1,67.8,29.93,WSW,244,11.0,16.0,60,0.00,,,0.00,601,Wunderground v.1.15,2013-09-20 16:15:00,
2013-09-20 12:20:00,82.7,68.4,29.93,WSW,240,6.0,13.0,62,0.00,,,0.00,754,Wunderground v.1.15,2013-09-20 16:20:00,
2013-09-20 12:25:00,83.7,68.3,29.93,West,275,7.0,13.0,60,0.00,,,0.00,766,Wunderground v.1.15,2013-09-20 16:25:00,
2013-09-20 12:30:00,83.9,68.5,29.92,West,269,10.0,13.0,60,0.00,,,0.00,701,Wunderground v.1.15,2013-09-20 16:30:00,
2013-09-20 12:35:00,83.7,67.8,29.92,West,271,8.0,15.0,59,0.00,,,0.00,756,Wunderground v.1.15,2013-09-20 16:35:00,
2013-09-20 12:40:00,83.9,68.5,29.92,West,267,7.0,13.0,60,0.00,,,0.00,575,Wunderground v.1.15,2013-09-20 16:40:00,
2013-09-20 12:45:00,84.1,68.2,29.92,West,264,10.0,15.0,59,0.00,,,0.00,714,Wunderground v.1.15,2013-09-20 16:45:00,
2013-09-20 12:50:00,83.9,67.5,29.92,WSW,256,6.0,14.0,58,0.00,,,0.00,427,Wunderground v.1.15,2013-09-20 16:50:00,
2013-09-20 12:55:00,83.7,67.8,29.92,West,266,7.0,14.0,59,0.00,,,0.00,807,Wunderground v.1.15,2013-09-20 16:55:00,
2013-09-20 13:00:00,84.2,68.3,29.92,West,277,5.0,12.0,59,0.00,,,0.00,830,Wunderground v.1.15,2013-09-20 17:00:00,
2013-09-20 13:05:00,84.6,68.7,29.92,West,275,7.0,15.0,59,0.00,,,0.00,838,Wunderground v.1.15,2013-09-20 17:05:00,
2013-09-20 13:10:00,84.7,68.3,29.91,WSW,252,10.0,12.0,58,0.00,,,0.00,220,Wunderground v.1.15,2013-09-20 17:10:00,
2013-09-20 13:15:00,83.9,68.0,29.91,West,274,8.0,13.0,59,0.00,,,0.00,246,Wunderground v.1.15,2013-09-20 17:15:00,
2013-09-20 13:20:00,84.0,68.1,29.91,West,263,7.0,12.0,59,0.00,,,0.00,315,Wunderground v.1.15,2013-09-20 17:20:00,
2013-09-20 13:25:00,84.6,68.2,29.91,WSW,252,10.0,13.0,58,0.00,,,0.00,494,Wunderground v.1.15,2013-09-20 17:25:00,
2013-09-20 13:30:00,83.9,68.0,29.91,West,270,7.0,12.0,59,0.00,,,0.00,770,Wunderground v.1.15,2013-09-20 17:30:00,
2013-09-20 13:35:00,84.4,68.0,29.90,WSW,238,7.0,13.0,58,0.00,,,0.00,817,Wunderground v.1.15,2013-09-20 17:35:00,
2013-09-20 13:40:00,84.6,68.2,29.90,West,279,9.0,12.0,58,0.00,,,0.00,831,Wunderground v.1.15,2013-09-20 17:40:00,
2013-09-20 13:45:00,84.7,68.3,29.90,West,279,13.0,13.0,58,0.00,,,0.00,853,Wunderground v.1.15,2013-09-20 17:45:00,
2013-09-20 13:50:00,84.9,68.5,29.90,WSW,250,7.0,8.0,58,0.00,,,0.00,856,Wunderground v.1.15,2013-09-20 17:50:00,
2013-09-20 13:55:00,85.2,69.3,29.89,WSW,250,6.0,10.0,59,0.00,,,0.00,854,Wunderground v.1.15,2013-09-20 17:55:00,
2013-09-20 14:00:00,85.6,68.6,29.89,WSW,258,6.0,12.0,57,0.00,,,0.00,715,Wunderground v.1.15,2013-09-20 18:00:00,
2013-09-20 14:05:00,85.4,68.4,29.89,WSW,253,8.0,12.0,57,0.00,,,0.00,352,Wunderground v.1.15,2013-09-20 18:05:00,
2013-09-20 14:10:00,85.3,67.8,29.89,SW,236,10.0,13.0,56,0.00,,,0.00,332,Wunderground v.1.15,2013-09-20 18:10:00,
2013-09-20 14:15:00,84.8,67.9,29.88,West,275,5.0,13.0,57,0.00,,,0.00,218,Wunderground v.1.15,2013-09-20 18:15:00,
2013-09-20 14:20:00,84.6,68.2,29.87,WSW,246,5.0,11.0,58,0.00,,,0.00,243,Wunderground v.1.15,2013-09-20 18:20:00,
2013-09-20 14:25:00,85.4,68.9,29.87,WNW,286,6.0,11.0,58,0.00,,,0.00,833,Wunderground v.1.15,2013-09-20 18:25:00,
2013-09-20 14:30:00,85.7,68.7,29.87,SW,232,8.0,14.0,57,0.00,,,0.00,812,Wunderground v.1.15,2013-09-20 18:30:00,
2013-09-20 14:35:00,86.4,69.4,29.87,WSW,252,3.0,14.0,57,0.00,,,0.00,800,Wunderground v.1.15,2013-09-20 18:35:00,
2013-09-20 14:40:00,86.4,68.3,29.86,WSW,252,4.0,11.0,55,0.00,,,0.00,248,Wunderground v.1.15,2013-09-20 18:40:00,
2013-09-20 14:45:00,85.3,68.3,29.86,SW,221,10.0,11.0,57,0.00,,,0.00,260,Wunderground v.1.15,2013-09-20 18:45:00,
2013-09-20 14:50:00,85.9,68.4,29.86,WSW,240,13.0,15.0,56,0.00,,,0.00,780,Wunderground v.1.15,2013-09-20 18:50:00,
2013-09-20 14:55:00,85.6,68.1,29.86,WSW,237,8.0,15.0,56,0.00,,,0.00,246,Wunderground v.1.15,2013-09-20 18:55:00,
2013-09-20 15:00:00,85.6,68.1,29.86,WSW,254,6.0,13.0,56,0.00,,,0.00,809,Wunderground v.1.15,2013-09-20 19:00:00,
2013-09-20 15:05:00,86.0,68.0,29.86,WSW,238,7.0,14.0,55,0.00,,,0.00,844,Wunderground v.1.15,2013-09-20 19:05:00,
2013-09-20 15:10:00,86.2,68.7,29.86,WSW,247,5.0,9.0,56,0.00,,,0.00,257,Wunderground v.1.15,2013-09-20 19:10:00,
2013-09-20 15:15:00,86.1,68.6,29.85,SW,232,5.0,13.0,56,0.00,,,0.00,571,Wunderground v.1.15,2013-09-20 19:15:00,
2013-09-20 15:20:00,86.0,68.5,29.85,SW,229,6.0,13.0,56,0.00,,,0.00,422,Wunderground v.1.15,2013-09-20 19:20:00,
2013-09-20 15:25:00,85.2,67.7,29.85,WSW,245,9.0,13.0,56,0.00,,,0.00,199,Wunderground v.1.15,2013-09-20 19:25:00,
2013-09-20 15:30:00,84.6,67.2,29.84,West,259,13.0,14.0,56,0.00,,,0.00,366,Wunderground v.1.15,2013-09-20 19:30:00,
2013-09-20 15:35:00,85.2,67.7,29.84,WSW,244,5.0,14.0,56,0.00,,,0.00,480,Wunderground v.1.15,2013-09-20 19:35:00,
2013-09-20 15:40:00,85.4,67.9,29.84,WSW,253,5.0,9.0,56,0.00,,,0.00,323,Wunderground v.1.15,2013-09-20 19:40:00,
2013-09-20 15:45:00,85.0,67.5,29.84,WSW,246,8.0,14.0,56,0.00,,,0.00,529,Wunderground v.1.15,2013-09-20 19:45:00,
2013-09-20 15:50:00,85.1,67.6,29.83,WSW,245,6.0,11.0,56,0.00,,,0.00,735,Wunderground v.1.15,2013-09-20 19:50:00,
2013-09-20 15:55:00,85.7,68.2,29.83,WSW,247,10.0,13.0,56,0.00,,,0.00,589,Wunderground v.1.15,2013-09-20 19:55:00,
2013-09-20 16:00:00,85.6,68.1,29.83,SW,218,9.0,12.0,56,0.00,,,0.00,668,Wunderground v.1.15,2013-09-20 20:00:00,
2013-09-20 16:05:00,85.7,68.2,29.82,SW,227,5.0,12.0,56,0.00,,,0.00,406,Wunderground v.1.15,2013-09-20 20:05:00,
2013-09-20 16:11:00,86.0,68.5,29.82,West,265,9.0,14.0,56,0.00,,,0.00,659,Wunderground v.1.15,2013-09-20 20:11:00,
2013-09-20 16:16:00,85.9,67.9,29.82,SW,236,11.0,14.0,55,0.00,,,0.00,654,Wunderground v.1.15,2013-09-20 20:16:00,
2013-09-20 16:21:00,85.4,67.9,29.82,SSW,196,7.0,12.0,56,0.00,,,0.00,316,Wunderground v.1.15,2013-09-20 20:21:00,
2013-09-20 16:26:00,84.9,68.0,29.82,WSW,247,1.0,13.0,57,0.00,,,0.00,243,Wunderground v.1.15,2013-09-20 20:26:00,
2013-09-20 16:31:00,85.0,68.1,29.82,WSW,242,7.0,11.0,57,0.00,,,0.00,257,Wunderground v.1.15,2013-09-20 20:31:00,
2013-09-20 16:36:00,85.0,68.1,29.82,SW,231,5.0,11.0,57,0.00,,,0.00,570,Wunderground v.1.15,2013-09-20 20:36:00,
2013-09-20 16:41:00,85.3,67.3,29.82,SW,220,13.0,18.0,55,0.00,,,0.00,258,Wunderground v.1.15,2013-09-20 20:41:00,
2013-09-20 16:46:00,84.8,66.8,29.81,SW,222,7.0,18.0,55,0.00,,,0.00,183,Wunderground v.1.15,2013-09-20 20:46:00,
2013-09-20 16:51:00,84.4,67.0,29.81,SW,233,10.0,13.0,56,0.00,,,0.00,322,Wunderground v.1.15,2013-09-20 20:51:00,
2013-09-20 16:56:00,84.4,67.5,29.81,SW,230,6.0,13.0,57,0.00,,,0.00,411,Wunderground v.1.15,2013-09-20 20:56:00,
2013-09-20 17:01:00,84.4,67.5,29.81,WSW,240,4.0,13.0,57,0.00,,,0.00,302,Wunderground v.1.15,2013-09-20 21:01:00,
2013-09-20 17:06:00,84.3,67.9,29.81,WSW,240,9.0,14.0,58,0.00,,,0.00,315,Wunderground v.1.15,2013-09-20 21:06:00,
2013-09-20 17:11:00,84.3,67.4,29.81,WSW,242,11.0,14.0,57,0.00,,,0.00,221,Wunderground v.1.15,2013-09-20 21:11:00,
2013-09-20 17:16:00,84.1,67.2,29.81,SW,218,7.0,14.0,57,0.00,,,0.00,251,Wunderground v.1.15,2013-09-20 21:16:00,
2013-09-20 17:21:00,83.9,67.0,29.81,SW,225,8.0,17.0,57,0.00,,,0.00,364,Wunderground v.1.15,2013-09-20 21:21:00,
2013-09-20 17:26:00,83.8,66.9,29.81,SW,229,11.0,17.0,57,0.00,,,0.00,287,Wunderground v.1.15,2013-09-20 21:26:00,
2013-09-20 17:31:00,83.8,66.9,29.81,WSW,237,9.0,12.0,57,0.00,,,0.00,301,Wunderground v.1.15,2013-09-20 21:31:00,
2013-09-20 17:36:00,83.9,67.5,29.81,West,261,13.0,13.0,58,0.00,,,0.00,250,Wunderground v.1.15,2013-09-20 21:36:00,
2013-09-20 17:41:00,83.8,67.4,29.81,SW,226,13.0,13.0,58,0.00,,,0.00,142,Wunderground v.1.15,2013-09-20 21:41:00,
2013-09-20 17:46:00,83.4,67.6,29.81,NW,313,4.0,13.0,59,0.00,,,0.00,116,Wunderground v.1.15,2013-09-20 21:46:00,
2013-09-20 17:51:00,83.1,67.8,29.81,SSW,206,7.0,13.0,60,0.00,,,0.00,105,Wunderground v.1.15,2013-09-20 21:51:00,
2013-09-20 17:56:00,82.8,67.5,29.81,WSW,252,6.0,13.0,60,0.00,,,0.00,83,Wunderground v.1.15,2013-09-20 21:56:00,
2013-09-20 18:01:00,82.6,67.3,29.81,WSW,254,3.0,10.0,60,0.00,,,0.00,79,Wunderground v.1.15,2013-09-20 22:01:00,
2013-09-20 18:06:00,82.3,67.5,29.81,WSW,240,3.0,10.0,61,0.00,,,0.00,88,Wunderground v.1.15,2013-09-20 22:06:00,
2013-09-20 18:11:00,82.1,67.8,29.80,SW,222,1.0,9.0,62,0.00,,,0.00,95,Wunderground v.1.15,2013-09-20 22:11:00,
2013-09-20 18:16:00,81.9,68.1,29.81,SW,234,7.0,9.0,63,0.00,,,0.00,91,Wunderground v.1.15,2013-09-20 22:16:00,
2013-09-20 18:21:00,81.7,67.9,29.81,WSW,254,6.0,6.0,63,0.00,,,0.00,81,Wunderground v.1.15,2013-09-20 22:21:00,
2013-09-20 18:26:00,81.4,68.1,29.80,SW,233,9.0,11.0,64,0.00,,,0.00,70,Wunderground v.1.15,2013-09-20 22:26:00,
2013-09-20 18:31:00,81.2,67.9,29.80,SSW,207,12.0,12.0,64,0.00,,,0.00,62,Wunderground v.1.15,2013-09-20 22:31:00,
2013-09-20 18:36:00,81.0,67.7,29.80,SSW,196,7.0,12.0,64,0.00,,,0.00,60,Wunderground v.1.15,2013-09-20 22:36:00,
2013-09-20 18:41:00,80.7,67.8,29.80,WSW,238,4.0,7.0,65,0.00,,,0.00,56,Wunderground v.1.15,2013-09-20 22:41:00,
2013-09-20 18:46:00,80.7,67.8,29.80,WSW,242,6.0,9.0,65,0.00,,,0.00,51,Wunderground v.1.15,2013-09-20 22:46:00,
2013-09-20 18:51:00,80.5,67.6,29.80,West,276,4.0,7.0,65,0.00,,,0.00,44,Wunderground v.1.15,2013-09-20 22:51:00,
2013-09-20 18:56:00,80.3,67.9,29.80,SW,216,4.0,9.0,66,0.00,,,0.00,35,Wunderground v.1.15,2013-09-20 22:56:00,
2013-09-20 19:01:00,80.1,67.7,29.80,SW,229,4.0,8.0,66,0.00,,,0.00,26,Wunderground v.1.15,2013-09-20 23:01:00,
2013-09-20 19:06:00,79.8,67.9,29.80,SW,216,0.0,8.0,67,0.00,,,0.00,19,Wunderground v.1.15,2013-09-20 23:06:00,
2013-09-20 19:11:00,79.5,67.6,29.80,SW,232,3.0,7.0,67,0.00,,,0.00,14,Wunderground v.1.15,2013-09-20 23:11:00,
2013-09-20 19:16:00,79.3,67.8,29.80,SW,223,4.0,7.0,68,0.00,,,0.00,12,Wunderground v.1.15,2013-09-20 23:16:00,
2013-09-20 19:21:00,79.1,67.6,29.80,SSW,210,2.0,7.0,68,0.00,,,0.00,9,Wunderground v.1.15,2013-09-20 23:21:00,
2013-09-20 19:26:00,78.9,67.9,29.80,SW,217,2.0,7.0,69,0.00,,,0.00,5,Wunderground v.1.15,2013-09-20 23:26:00,
2013-09-20 19:31:00,78.7,67.7,29.80,SW,234,3.0,5.0,69,0.00,,,0.00,0,Wunderground v.1.15,2013-09-20 23:31:00,
2013-09-20 19:36:00,78.6,68.0,29.80,WSW,243,1.0,5.0,70,0.00,,,0.00,0,Wunderground v.1.15,2013-09-20 23:36:00,
2013-09-20 19:41:00,78.5,67.9,29.80,West,261,5.0,5.0,70,0.00,,,0.00,0,Wunderground v.1.15,2013-09-20 23:41:00,
2013-09-20 19:46:00,78.3,67.7,29.80,WSW,257,1.0,5.0,70,0.00,,,0.00,0,Wunderground v.1.15,2013-09-20 23:46:00,
2013-09-20 19:51:00,78.1,67.9,29.80,WSW,250,0.0,3.0,71,0.00,,,0.00,0,Wunderground v.1.15,2013-09-20 23:51:00,
2013-09-20 19:56:00,77.9,67.7,29.80,WSW,250,2.0,3.0,71,0.00,,,0.00,0,Wunderground v.1.15,2013-09-20 23:56:00,
2013-09-20 20:01:00,77.8,68.0,29.80,WSW,250,0.0,2.0,72,0.00,,,0.00,0,Wunderground v.1.15,2013-09-21 00:01:00,
2013-09-20 20:06:00,77.6,67.9,29.80,SSW,212,0.0,3.0,72,0.00,,,0.00,0,Wunderground v.1.15,2013-09-21 00:06:00,
2013-09-20 20:11:00,77.4,68.1,29.80,SSW,211,2.0,2.0,73,0.00,,,0.00,0,Wunderground v.1.15,2013-09-21 00:11:00,
2013-09-20 20:16:00,77.1,67.8,29.80,SW,218,1.0,4.0,73,0.00,,,0.00,0,Wunderground v.1.15,2013-09-21 00:16:00,
2013-09-20 20:21:00,77.0,68.1,29.79,SW,217,1.0,3.0,74,0.00,,,0.00,0,Wunderground v.1.15,2013-09-21 00:21:00,
2013-09-20 20:26:00,76.8,67.9,29.79,SW,223,2.0,4.0,74,0.00,,,0.00,0,Wunderground v.1.15,2013-09-21 00:26:00,
2013-09-20 20:31:00,76.6,67.7,29.79,SW,223,2.0,4.0,74,0.00,,,0.00,0,Wunderground v.1.15,2013-09-21 00:31:00,
2013-09-20 20:36:00,76.5,68.0,29.79,SSW,211,1.0,4.0,75,0.00,,,0.00,0,Wunderground v.1.15,2013-09-21 00:36:00,
2013-09-20 20:41:00,76.4,67.9,29.79,SW,217,1.0,3.0,75,0.00,,,0.00,0,Wunderground v.1.15,2013-09-21 00:41:00,
2013-09-20 20:46:00,76.2,67.7,29.79,SW,217,4.0,4.0,75,0.00,,,0.00,0,Wunderground v.1.15,2013-09-21 00:46:00,
2013-09-20 20:51:00,76.1,68.0,29.79,SW,218,3.0,5.0,76,0.00,,,0.00,0,Wunderground v.1.15,2013-09-21 00:51:00,
2013-09-20 20:56:00,75.9,67.8,29.79,SSW,210,4.0,6.0,76,0.00,,,0.00,0,Wunderground v.1.15,2013-09-21 00:56:00,
2013-09-20 21:01:00,75.8,67.7,29.79,SW,227,2.0,6.0,76,0.00,,,0.00,0,Wunderground v.1.15,2013-09-21 01:01:00,
2013-09-20 21:06:00,75.6,67.9,29.79,SW,221,3.0,6.0,77,0.00,,,0.00,0,Wunderground v.1.15,2013-09-21 01:06:00,
2013-09-20 21:11:00,75.4,67.7,29.79,SW,232,5.0,7.0,77,0.00,,,0.00,0,Wunderground v.1.15,2013-09-21 01:11:00,
2013-09-20 21:16:00,75.4,67.7,29.79,SW,219,0.0,7.0,77,0.00,,,0.00,0,Wunderground v.1.15,2013-09-21 01:16:00,
2013-09-20 21:21:00,75.3,67.6,29.79,SW,220,2.0,6.0,77,0.00,,,0.00,0,Wunderground v.1.15,2013-09-21 01:21:00,
2013-09-20 21:26:00,75.2,67.5,29.79,SW,219,4.0,6.0,77,0.00,,,0.00,0,Wunderground v.1.15,2013-09-21 01:26:00,
2013-09-20 21:31:00,75.2,67.5,29.79,WSW,256,0.0,4.0,77,0.00,,,0.00,0,Wunderground v.1.15,2013-09-21 01:31:00,
2013-09-20 21:36:00,75.1,67.4,29.79,SSW,211,3.0,5.0,77,0.00,,,0.00,0,Wunderground v.1.15,2013-09-21 01:36:00,
2013-09-20 21:41:00,75.0,67.3,29.79,SSW,207,4.0,5.0,77,0.00,,,0.00,0,Wunderground v.1.15,2013-09-21 01:41:00,
2013-09-20 21:47:00,74.9,67.6,29.79,SW,223,1.0,6.0,78,0.00,,,0.00,0,Wunderground v.1.15,2013-09-21 01:47:00,
2013-09-20 21:52:00,74.7,67.4,29.79,SW,228,3.0,4.0,78,0.00,,,0.00,0,Wunderground v.1.15,2013-09-21 01:52:00,
2013-09-20 21:57:00,74.6,67.7,29.79,SW,221,2.0,4.0,79,0.00,,,0.00,0,Wunderground v.1.15,2013-09-21 01:57:00,
2013-09-20 22:02:00,74.5,67.6,29.79,SW,215,0.0,3.0,79,0.00,,,0.00,0,Wunderground v.1.15,2013-09-21 02:02:00,
2013-09-20 22:07:00,74.4,67.5,29.79,SW,215,0.0,3.0,79,0.00,,,0.00,0,Wunderground v.1.15,2013-09-21 02:07:00,
2013-09-20 22:12:00,74.3,67.4,29.79,SW,215,0.0,5.0,79,0.00,,,0.00,0,Wunderground v.1.15,2013-09-21 02:12:00,
2013-09-20 22:17:00,74.3,67.4,29.80,WNW,298,8.0,11.0,79,0.00,,,0.00,0,Wunderground v.1.15,2013-09-21 02:17:00,
2013-09-20 22:22:00,74.1,68.6,29.80,NW,325,4.0,12.0,83,0.00,,,0.00,0,Wunderground v.1.15,2013-09-21 02:22:00,
2013-09-20 22:27:00,73.5,68.4,29.80,NW,319,2.0,12.0,84,0.00,,,0.00,0,Wunderground v.1.15,2013-09-21 02:27:00,
2013-09-20 22:32:00,73.3,68.5,29.80,NW,310,5.0,6.0,85,0.00,,,0.00,0,Wunderground v.1.15,2013-09-21 02:32:00,
2013-09-20 22:37:00,73.0,68.6,29.80,NNW,348,5.0,6.0,86,0.00,,,0.00,0,Wunderground v.1.15,2013-09-21 02:37:00,
2013-09-20 22:42:00,72.7,68.6,29.79,NNE,18,3.0,6.0,87,0.00,,,0.00,0,Wunderground v.1.15,2013-09-21 02:42:00,
2013-09-20 22:47:00,72.4,68.6,29.79,NNE,17,4.0,6.0,88,0.00,,,0.00,0,Wunderground v.1.15,2013-09-21 02:47:00,
2013-09-20 22:52:00,72.2,68.8,29.79,NW,313,4.0,6.0,89,0.00,,,0.00,0,Wunderground v.1.15,2013-09-21 02:52:00,
2013-09-20 22:57:00,72.0,68.9,29.79,North,5,1.0,6.0,90,0.00,,,0.00,0,Wunderground v.1.15,2013-09-21 02:57:00,
2013-09-20 23:02:00,71.8,68.7,29.79,NNW,334,1.0,3.0,90,0.00,,,0.00,0,Wunderground v.1.15,2013-09-21 03:02:00,
2013-09-20 23:07:00,71.6,68.8,29.79,North,360,2.0,3.0,91,0.00,,,0.00,0,Wunderground v.1.15,2013-09-21 03:07:00,
2013-09-20 23:12:00,71.5,68.7,29.79,North,360,0.0,2.0,91,0.00,,,0.00,0,Wunderground v.1.15,2013-09-21 03:12:00,
2013-09-20 23:17:00,71.5,68.7,29.78,North,360,0.0,2.0,91,0.00,,,0.00,0,Wunderground v.1.15,2013-09-21 03:17:00,
2013-09-20 23:22:00,71.6,68.8,29.78,North,360,0.0,1.0,91,0.00,,,0.00,0,Wunderground v.1.15,2013-09-21 03:22:00,
2013-09-20 23:27:00,71.6,68.8,29.78,North,360,0.0,1.0,91,0.00,,,0.00,0,Wunderground v.1.15,2013-09-21 03:27:00,
2013-09-20 23:32:00,71.5,68.7,29.78,North,360,0.0,0.0,91,0.00,,,0.00,0,Wunderground v.1.15,2013-09-21 03:32:00,
2013-09-20 23:37:00,71.3,68.5,29.78,North,360,1.0,1.0,91,0.00,,,0.00,0,Wunderground v.1.15,2013-09-21 03:37:00,
2013-09-20 23:42:00,71.2,68.8,29.78,North,360,0.0,1.0,92,0.00,,,0.00,0,Wunderground v.1.15,2013-09-21 03:42:00,
2013-09-20 23:47:00,71.2,68.8,29.78,North,355,0.0,2.0,92,0.00,,,0.00,0,Wunderground v.1.15,2013-09-21 03:47:00,
2013-09-20 23:52:00,71.2,68.8,29.78,WNW,286,0.0,3.0,92,0.00,,,0.00,0,Wunderground v.1.15,2013-09-21 03:52:00,
2013-09-20 23:57:00,71.2,68.8,29.78,WSW,244,0.0,3.0,92,0.00,,,0.00,0,Wunderground v.1.15,2013-09-21 03:57:00,